sensor_id;sensor_type;location;lat;lon;timestamp;temperature;humidity
11826;DHT22;5970;48.094;11.496;2022-10-15T00:01:19;13.80;99.90
11826;DHT22;5970;48.094;11.496;2022-10-15T00:03:46;13.80;99.90
11826;DHT22;5970;48.094;11.496;2022-10-15T00:06:14;13.70;99.90
11826;DHT22;5970;48.094;11.496;2022-10-15T00:08:41;14.90;99.90
11826;DHT22;5970;48.094;11.496;2022-10-15T00:11:09;14.80;99.90
11826;DHT22;5970;48.094;11.496;2022-10-15T00:13:36;13.60;99.90
11826;DHT22;5970;48.094;11.496;2022-10-15T00:16:05;13.70;99.90
11826;DHT22;5970;48.094;11.496;2022-10-15T00:18:32;13.80;99.90
11826;DHT22;5970;48.094;11.496;2022-10-15T00:20:58;13.70;99.90
11826;DHT22;5970;48.094;11.496;2022-10-15T00:23:25;13.70;99.90
11826;DHT22;5970;48.094;11.496;2022-10-15T00:26:05;13.60;99.90
11826;DHT22;5970;48.094;11.496;2022-10-15T00:28:33;13.50;99.90
11826;DHT22;5970;48.094;11.496;2022-10-15T00:31:00;13.60;99.90
11826;DHT22;5970;48.094;11.496;2022-10-15T00:33:27;13.60;99.90
11826;DHT22;5970;48.094;11.496;2022-10-15T00:35:57;13.60;99.90
11826;DHT22;5970;48.094;11.496;2022-10-15T00:38:24;13.60;99.90
11826;DHT22;5970;48.094;11.496;2022-10-15T00:40:51;13.50;99.90
11826;DHT22;5970;48.094;11.496;2022-10-15T00:43:33;13.60;99.90
11826;DHT22;5970;48.094;11.496;2022-10-15T00:46:00;13.70;99.90
11826;DHT22;5970;48.094;11.496;2022-10-15T00:48:27;13.60;99.90
11826;DHT22;5970;48.094;11.496;2022-10-15T00:50:55;13.50;99.90
11826;DHT22;5970;48.094;11.496;2022-10-15T00:53:22;14.10;99.90
11826;DHT22;5970;48.094;11.496;2022-10-15T00:55:49;13.50;99.90
11826;DHT22;5970;48.094;11.496;2022-10-15T00:58:16;13.60;99.90
11826;DHT22;5970;48.094;11.496;2022-10-15T01:00:47;13.60;99.90
11826;DHT22;5970;48.094;11.496;2022-10-15T01:03:14;13.50;99.90
11826;DHT22;5970;48.094;11.496;2022-10-15T01:05:40;14.30;99.90
11826;DHT22;5970;48.094;11.496;2022-10-15T01:08:09;14.70;99.90
11826;DHT22;5970;48.094;11.496;2022-10-15T01:10:38;13.60;99.90
11826;DHT22;5970;48.094;11.496;2022-10-15T01:13:13;13.40;99.90
11826;DHT22;5970;48.094;11.496;2022-10-15T01:15:48;13.30;99.90
11826;DHT22;5970;48.094;11.496;2022-10-15T01:18:17;13.40;99.90
11826;DHT22;5970;48.094;11.496;2022-10-15T01:21:07;13.40;99.90
11826;DHT22;5970;48.094;11.496;2022-10-15T01:23:40;13.40;99.90
11826;DHT22;5970;48.094;11.496;2022-10-15T01:34:01;13.40;99.90
11826;DHT22;5970;48.094;11.496;2022-10-15T01:41:31;14.60;99.90
11826;DHT22;5970;48.094;11.496;2022-10-15T01:44:03;13.40;99.90
11826;DHT22;5970;48.094;11.496;2022-10-15T01:49:01;13.50;99.90
11826;DHT22;5970;48.094;11.496;2022-10-15T01:51:29;13.50;99.90
11826;DHT22;5970;48.094;11.496;2022-10-15T01:53:58;13.40;99.90
11826;DHT22;5970;48.094;11.496;2022-10-15T01:56:27;13.50;99.90
11826;DHT22;5970;48.094;11.496;2022-10-15T01:58:55;13.30;99.90
11826;DHT22;5970;48.094;11.496;2022-10-15T02:01:22;13.50;99.90
11826;DHT22;5970;48.094;11.496;2022-10-15T02:03:49;13.40;99.90
11826;DHT22;5970;48.094;11.496;2022-10-15T02:07:00;13.40;99.90
11826;DHT22;5970;48.094;11.496;2022-10-15T02:09:09;13.40;99.90
11826;DHT22;5970;48.094;11.496;2022-10-15T02:12:30;13.40;99.90
11826;DHT22;5970;48.094;11.496;2022-10-15T02:14:33;13.50;99.90
11826;DHT22;5970;48.094;11.496;2022-10-15T02:17:09;13.60;99.90
11826;DHT22;5970;48.094;11.496;2022-10-15T02:19:39;13.50;99.90
11826;DHT22;5970;48.094;11.496;2022-10-15T02:22:18;14.80;99.90
11826;DHT22;5970;48.094;11.496;2022-10-15T02:25:27;13.60;99.90
11826;DHT22;5970;48.094;11.496;2022-10-15T02:27:34;13.50;99.90
11826;DHT22;5970;48.094;11.496;2022-10-15T02:30:03;13.50;99.90
11826;DHT22;5970;48.094;11.496;2022-10-15T02:32:32;13.50;99.90
11826;DHT22;5970;48.094;11.496;2022-10-15T02:34:59;13.50;99.90
11826;DHT22;5970;48.094;11.496;2022-10-15T02:37:26;13.50;99.90
11826;DHT22;5970;48.094;11.496;2022-10-15T02:39:54;13.50;99.90
11826;DHT22;5970;48.094;11.496;2022-10-15T02:42:21;15.70;99.90
11826;DHT22;5970;48.094;11.496;2022-10-15T02:44:48;13.70;99.90
11826;DHT22;5970;48.094;11.496;2022-10-15T02:47:15;13.40;99.90
11826;DHT22;5970;48.094;11.496;2022-10-15T02:49:42;13.30;99.90
11826;DHT22;5970;48.094;11.496;2022-10-15T02:52:08;13.50;99.90
11826;DHT22;5970;48.094;11.496;2022-10-15T02:54:35;13.50;99.90
11826;DHT22;5970;48.094;11.496;2022-10-15T02:57:02;13.40;99.90
11826;DHT22;5970;48.094;11.496;2022-10-15T02:59:28;13.50;99.90
11826;DHT22;5970;48.094;11.496;2022-10-15T03:01:55;13.50;99.90
11826;DHT22;5970;48.094;11.496;2022-10-15T03:04:21;13.50;99.90
11826;DHT22;5970;48.094;11.496;2022-10-15T03:06:48;13.50;99.90
11826;DHT22;5970;48.094;11.496;2022-10-15T03:09:15;13.50;99.90
11826;DHT22;5970;48.094;11.496;2022-10-15T03:11:41;14.30;99.90
11826;DHT22;5970;48.094;11.496;2022-10-15T03:14:08;13.40;99.90
11826;DHT22;5970;48.094;11.496;2022-10-15T03:16:35;13.50;99.90
11826;DHT22;5970;48.094;11.496;2022-10-15T03:19:01;13.30;99.90
11826;DHT22;5970;48.094;11.496;2022-10-15T03:21:28;15.10;99.90
11826;DHT22;5970;48.094;11.496;2022-10-15T03:23:57;13.40;99.90
11826;DHT22;5970;48.094;11.496;2022-10-15T03:26:24;13.50;99.90
11826;DHT22;5970;48.094;11.496;2022-10-15T03:28:50;13.50;99.90
11826;DHT22;5970;48.094;11.496;2022-10-15T03:31:17;13.70;99.90
11826;DHT22;5970;48.094;11.496;2022-10-15T03:33:44;13.40;99.90
11826;DHT22;5970;48.094;11.496;2022-10-15T03:36:10;13.40;99.90
11826;DHT22;5970;48.094;11.496;2022-10-15T03:38:37;14.70;99.90
11826;DHT22;5970;48.094;11.496;2022-10-15T03:41:04;13.50;99.90
11826;DHT22;5970;48.094;11.496;2022-10-15T03:43:30;13.50;99.90
11826;DHT22;5970;48.094;11.496;2022-10-15T03:46:00;13.50;99.90
11826;DHT22;5970;48.094;11.496;2022-10-15T03:48:27;13.50;99.90
11826;DHT22;5970;48.094;11.496;2022-10-15T03:50:54;14.20;99.90
11826;DHT22;5970;48.094;11.496;2022-10-15T03:53:20;13.50;99.90
11826;DHT22;5970;48.094;11.496;2022-10-15T03:55:47;13.60;99.90
11826;DHT22;5970;48.094;11.496;2022-10-15T03:58:14;13.50;99.90
11826;DHT22;5970;48.094;11.496;2022-10-15T04:00:41;14.60;99.90
11826;DHT22;5970;48.094;11.496;2022-10-15T04:03:08;13.60;99.90
11826;DHT22;5970;48.094;11.496;2022-10-15T04:05:35;13.60;99.90
11826;DHT22;5970;48.094;11.496;2022-10-15T04:08:02;13.50;99.90
11826;DHT22;5970;48.094;11.496;2022-10-15T04:10:28;14.90;99.90
11826;DHT22;5970;48.094;11.496;2022-10-15T04:12:55;13.60;99.90
11826;DHT22;5970;48.094;11.496;2022-10-15T04:15:22;13.60;99.90
11826;DHT22;5970;48.094;11.496;2022-10-15T04:17:48;13.60;99.90
11826;DHT22;5970;48.094;11.496;2022-10-15T04:20:23;13.70;99.90
11826;DHT22;5970;48.094;11.496;2022-10-15T04:22:50;13.70;99.90
11826;DHT22;5970;48.094;11.496;2022-10-15T04:25:16;13.70;99.90
11826;DHT22;5970;48.094;11.496;2022-10-15T04:27:43;13.70;99.90
11826;DHT22;5970;48.094;11.496;2022-10-15T04:30:10;13.70;99.90
11826;DHT22;5970;48.094;11.496;2022-10-15T04:32:37;13.80;99.90
11826;DHT22;5970;48.094;11.496;2022-10-15T04:35:03;13.60;99.90
11826;DHT22;5970;48.094;11.496;2022-10-15T04:37:33;13.80;99.90
11826;DHT22;5970;48.094;11.496;2022-10-15T04:40:00;13.80;99.90
11826;DHT22;5970;48.094;11.496;2022-10-15T04:42:27;13.80;99.90
11826;DHT22;5970;48.094;11.496;2022-10-15T04:44:54;13.90;99.90
11826;DHT22;5970;48.094;11.496;2022-10-15T04:47:20;14.10;99.90
11826;DHT22;5970;48.094;11.496;2022-10-15T04:49:47;13.80;99.90
11826;DHT22;5970;48.094;11.496;2022-10-15T04:52:14;13.90;99.90
11826;DHT22;5970;48.094;11.496;2022-10-15T04:54:41;14.00;99.90
11826;DHT22;5970;48.094;11.496;2022-10-15T04:57:07;14.00;99.90
11826;DHT22;5970;48.094;11.496;2022-10-15T04:59:34;14.60;99.90
11826;DHT22;5970;48.094;11.496;2022-10-15T05:02:00;14.10;99.90
11826;DHT22;5970;48.094;11.496;2022-10-15T05:04:27;15.20;99.90
11826;DHT22;5970;48.094;11.496;2022-10-15T05:06:54;14.30;99.90
11826;DHT22;5970;48.094;11.496;2022-10-15T05:09:20;15.00;99.90
11826;DHT22;5970;48.094;11.496;2022-10-15T05:11:47;15.40;99.90
11826;DHT22;5970;48.094;11.496;2022-10-15T05:14:14;15.60;99.90
11826;DHT22;5970;48.094;11.496;2022-10-15T05:16:40;15.20;99.90
11826;DHT22;5970;48.094;11.496;2022-10-15T05:19:07;14.40;99.90
11826;DHT22;5970;48.094;11.496;2022-10-15T05:21:35;14.40;99.90
11826;DHT22;5970;48.094;11.496;2022-10-15T05:24:02;14.40;99.90
11826;DHT22;5970;48.094;11.496;2022-10-15T05:26:29;14.50;99.90
11826;DHT22;5970;48.094;11.496;2022-10-15T05:48:19;14.60;99.90
11826;DHT22;5970;48.094;11.496;2022-10-15T05:53:27;14.60;99.90
11826;DHT22;5970;48.094;11.496;2022-10-15T05:55:54;16.00;99.90
11826;DHT22;5970;48.094;11.496;2022-10-15T05:58:20;15.10;99.90
11826;DHT22;5970;48.094;11.496;2022-10-15T06:00:54;14.80;99.90
11826;DHT22;5970;48.094;11.496;2022-10-15T06:03:21;14.70;99.90
11826;DHT22;5970;48.094;11.496;2022-10-15T06:05:47;14.70;99.90
11826;DHT22;5970;48.094;11.496;2022-10-15T06:08:14;14.70;99.90
11826;DHT22;5970;48.094;11.496;2022-10-15T06:10:41;14.70;99.90
11826;DHT22;5970;48.094;11.496;2022-10-15T06:13:08;14.80;99.90
11826;DHT22;5970;48.094;11.496;2022-10-15T06:15:40;14.80;99.90
11826;DHT22;5970;48.094;11.496;2022-10-15T06:18:07;14.80;99.90
11826;DHT22;5970;48.094;11.496;2022-10-15T06:20:35;15.80;99.90
11826;DHT22;5970;48.094;11.496;2022-10-15T06:23:03;14.80;99.90
11826;DHT22;5970;48.094;11.496;2022-10-15T06:25:30;14.90;99.90
11826;DHT22;5970;48.094;11.496;2022-10-15T06:28:00;14.70;99.90
11826;DHT22;5970;48.094;11.496;2022-10-15T06:30:28;14.80;99.90
11826;DHT22;5970;48.094;11.496;2022-10-15T06:32:55;14.80;99.90
11826;DHT22;5970;48.094;11.496;2022-10-15T06:35:22;14.80;99.90
11826;DHT22;5970;48.094;11.496;2022-10-15T06:37:49;14.70;99.90
11826;DHT22;5970;48.094;11.496;2022-10-15T06:40:16;14.80;99.90
11826;DHT22;5970;48.094;11.496;2022-10-15T06:42:43;15.40;99.90
11826;DHT22;5970;48.094;11.496;2022-10-15T06:45:10;16.10;99.90
11826;DHT22;5970;48.094;11.496;2022-10-15T06:47:38;14.80;99.90
11826;DHT22;5970;48.094;11.496;2022-10-15T06:50:06;15.20;99.90
11826;DHT22;5970;48.094;11.496;2022-10-15T06:52:33;14.90;99.90
11826;DHT22;5970;48.094;11.496;2022-10-15T06:54:59;14.80;99.90
11826;DHT22;5970;48.094;11.496;2022-10-15T06:57:26;14.90;99.90
11826;DHT22;5970;48.094;11.496;2022-10-15T06:59:54;14.80;99.90
11826;DHT22;5970;48.094;11.496;2022-10-15T07:02:21;14.80;99.90
11826;DHT22;5970;48.094;11.496;2022-10-15T07:04:48;15.40;99.90
11826;DHT22;5970;48.094;11.496;2022-10-15T07:07:14;14.90;99.90
11826;DHT22;5970;48.094;11.496;2022-10-15T07:09:41;15.10;99.90
11826;DHT22;5970;48.094;11.496;2022-10-15T07:12:08;15.10;99.90
11826;DHT22;5970;48.094;11.496;2022-10-15T07:14:34;15.10;99.90
11826;DHT22;5970;48.094;11.496;2022-10-15T07:17:07;15.20;99.90
11826;DHT22;5970;48.094;11.496;2022-10-15T07:19:34;15.10;99.90
11826;DHT22;5970;48.094;11.496;2022-10-15T07:22:01;15.20;99.90
11826;DHT22;5970;48.094;11.496;2022-10-15T07:24:27;15.30;99.90
11826;DHT22;5970;48.094;11.496;2022-10-15T07:26:54;16.00;99.90
11826;DHT22;5970;48.094;11.496;2022-10-15T07:29:20;15.20;99.90
11826;DHT22;5970;48.094;11.496;2022-10-15T07:31:47;15.20;99.90
11826;DHT22;5970;48.094;11.496;2022-10-15T07:34:14;16.90;99.90
11826;DHT22;5970;48.094;11.496;2022-10-15T07:36:40;15.30;99.90
11826;DHT22;5970;48.094;11.496;2022-10-15T07:39:08;15.30;99.90
11826;DHT22;5970;48.094;11.496;2022-10-15T07:41:34;15.30;99.90
11826;DHT22;5970;48.094;11.496;2022-10-15T07:44:01;15.80;99.90
11826;DHT22;5970;48.094;11.496;2022-10-15T07:46:28;16.20;99.90
11826;DHT22;5970;48.094;11.496;2022-10-15T07:48:55;15.30;99.90
11826;DHT22;5970;48.094;11.496;2022-10-15T07:51:21;15.30;99.90
11826;DHT22;5970;48.094;11.496;2022-10-15T07:53:48;15.60;99.90
11826;DHT22;5970;48.094;11.496;2022-10-15T07:56:15;16.10;99.90
11826;DHT22;5970;48.094;11.496;2022-10-15T07:58:41;15.40;99.90
11826;DHT22;5970;48.094;11.496;2022-10-15T08:01:09;16.70;99.90
11826;DHT22;5970;48.094;11.496;2022-10-15T08:03:36;16.40;99.90
11826;DHT22;5970;48.094;11.496;2022-10-15T08:06:04;15.40;99.90
11826;DHT22;5970;48.094;11.496;2022-10-15T08:08:30;15.40;99.90
11826;DHT22;5970;48.094;11.496;2022-10-15T08:10:57;15.40;99.90
11826;DHT22;5970;48.094;11.496;2022-10-15T08:13:24;16.60;99.90
11826;DHT22;5970;48.094;11.496;2022-10-15T08:15:51;15.50;99.90
11826;DHT22;5970;48.094;11.496;2022-10-15T08:18:23;17.00;99.90
11826;DHT22;5970;48.094;11.496;2022-10-15T08:20:49;15.50;99.90
11826;DHT22;5970;48.094;11.496;2022-10-15T08:23:16;16.50;99.90
11826;DHT22;5970;48.094;11.496;2022-10-15T08:25:43;15.60;99.90
11826;DHT22;5970;48.094;11.496;2022-10-15T08:28:09;16.90;99.90
11826;DHT22;5970;48.094;11.496;2022-10-15T08:30:36;15.70;99.90
11826;DHT22;5970;48.094;11.496;2022-10-15T08:33:03;16.20;99.90
11826;DHT22;5970;48.094;11.496;2022-10-15T08:35:30;17.00;99.90
11826;DHT22;5970;48.094;11.496;2022-10-15T08:38:00;15.60;99.90
11826;DHT22;5970;48.094;11.496;2022-10-15T08:40:27;16.20;99.90
11826;DHT22;5970;48.094;11.496;2022-10-15T08:42:55;15.30;99.90
11826;DHT22;5970;48.094;11.496;2022-10-15T08:47:56;15.20;99.90
11826;DHT22;5970;48.094;11.496;2022-10-15T08:50:33;15.20;99.90
11826;DHT22;5970;48.094;11.496;2022-10-15T08:53:01;15.30;99.90
11826;DHT22;5970;48.094;11.496;2022-10-15T08:55:28;15.40;99.90
11826;DHT22;5970;48.094;11.496;2022-10-15T08:58:03;15.40;99.90
11826;DHT22;5970;48.094;11.496;2022-10-15T09:00:34;15.40;99.90
11826;DHT22;5970;48.094;11.496;2022-10-15T09:05:36;16.30;99.90
11826;DHT22;5970;48.094;11.496;2022-10-15T09:10:42;16.00;99.90
11826;DHT22;5970;48.094;11.496;2022-10-15T09:15:52;16.50;99.90
11826;DHT22;5970;48.094;11.496;2022-10-15T09:18:23;16.50;99.90
11826;DHT22;5970;48.094;11.496;2022-10-15T09:20:50;17.20;99.90
11826;DHT22;5970;48.094;11.496;2022-10-15T09:23:19;16.90;99.90
11826;DHT22;5970;48.094;11.496;2022-10-15T09:26:07;17.10;99.90
11826;DHT22;5970;48.094;11.496;2022-10-15T09:28:37;17.30;99.90
11826;DHT22;5970;48.094;11.496;2022-10-15T09:31:05;17.30;99.90
11826;DHT22;5970;48.094;11.496;2022-10-15T09:33:36;17.60;99.90
11826;DHT22;5970;48.094;11.496;2022-10-15T09:38:37;17.80;99.90
11826;DHT22;5970;48.094;11.496;2022-10-15T09:43:45;17.60;99.90
11826;DHT22;5970;48.094;11.496;2022-10-15T09:46:13;17.70;99.90
11826;DHT22;5970;48.094;11.496;2022-10-15T09:48:42;17.80;99.90
11826;DHT22;5970;48.094;11.496;2022-10-15T09:51:16;17.80;99.90
11826;DHT22;5970;48.094;11.496;2022-10-15T09:53:46;17.90;99.90
11826;DHT22;5970;48.094;11.496;2022-10-15T09:56:19;18.00;99.90
11826;DHT22;5970;48.094;11.496;2022-10-15T09:58:52;18.00;99.90
11826;DHT22;5970;48.094;11.496;2022-10-15T10:01:20;18.30;99.90
11826;DHT22;5970;48.094;11.496;2022-10-15T10:03:51;18.30;99.90
11826;DHT22;5970;48.094;11.496;2022-10-15T10:06:18;18.60;99.90
11826;DHT22;5970;48.094;11.496;2022-10-15T10:08:50;18.80;99.90
11826;DHT22;5970;48.094;11.496;2022-10-15T10:11:17;19.10;99.90
11826;DHT22;5970;48.094;11.496;2022-10-15T10:13:48;19.50;99.90
11826;DHT22;5970;48.094;11.496;2022-10-15T10:16:17;19.50;99.90
11826;DHT22;5970;48.094;11.496;2022-10-15T10:18:45;19.50;99.90
11826;DHT22;5970;48.094;11.496;2022-10-15T10:21:30;19.80;99.90
11826;DHT22;5970;48.094;11.496;2022-10-15T10:23:59;19.90;99.90
11826;DHT22;5970;48.094;11.496;2022-10-15T10:26:44;19.70;99.90
11826;DHT22;5970;48.094;11.496;2022-10-15T10:29:12;19.90;99.90
11826;DHT22;5970;48.094;11.496;2022-10-15T10:32:07;20.40;99.90
11826;DHT22;5970;48.094;11.496;2022-10-15T10:34:34;20.80;99.90
11826;DHT22;5970;48.094;11.496;2022-10-15T10:37:02;21.10;99.90
11826;DHT22;5970;48.094;11.496;2022-10-15T10:49:35;25.10;95.30
11826;DHT22;5970;48.094;11.496;2022-10-15T10:52:03;25.10;94.80
11826;DHT22;5970;48.094;11.496;2022-10-15T10:54:30;24.10;94.30
11826;DHT22;5970;48.094;11.496;2022-10-15T10:56:57;23.80;94.80
11826;DHT22;5970;48.094;11.496;2022-10-15T10:59:26;23.70;95.40
11826;DHT22;5970;48.094;11.496;2022-10-15T11:01:54;23.70;95.00
11826;DHT22;5970;48.094;11.496;2022-10-15T11:14:33;22.10;96.30
11826;DHT22;5970;48.094;11.496;2022-10-15T11:17:11;22.30;96.70
11826;DHT22;5970;48.094;11.496;2022-10-15T11:19:46;21.80;96.70
11826;DHT22;5970;48.094;11.496;2022-10-15T11:22:44;21.20;96.40
11826;DHT22;5970;48.094;11.496;2022-10-15T11:27:45;20.60;97.80
11826;DHT22;5970;48.094;11.496;2022-10-15T11:32:52;20.70;98.10
11826;DHT22;5970;48.094;11.496;2022-10-15T11:41:15;21.60;98.30
11826;DHT22;5970;48.094;11.496;2022-10-15T11:53:50;26.50;91.10
11826;DHT22;5970;48.094;11.496;2022-10-15T11:56:21;27.20;90.70
11826;DHT22;5970;48.094;11.496;2022-10-15T11:58:49;27.60;87.00
11826;DHT22;5970;48.094;11.496;2022-10-15T12:01:19;28.60;86.20
11826;DHT22;5970;48.094;11.496;2022-10-15T12:03:52;29.80;84.50
11826;DHT22;5970;48.094;11.496;2022-10-15T12:06:21;30.50;77.20
11826;DHT22;5970;48.094;11.496;2022-10-15T12:08:48;29.70;76.10
11826;DHT22;5970;48.094;11.496;2022-10-15T12:11:36;28.80;75.90
11826;DHT22;5970;48.094;11.496;2022-10-15T12:14:19;27.60;77.30
11826;DHT22;5970;48.094;11.496;2022-10-15T12:19:39;24.70;83.80
11826;DHT22;5970;48.094;11.496;2022-10-15T12:22:07;23.60;86.90
11826;DHT22;5970;48.094;11.496;2022-10-15T12:29:46;25.40;89.20
11826;DHT22;5970;48.094;11.496;2022-10-15T12:32:21;25.40;88.30
11826;DHT22;5970;48.094;11.496;2022-10-15T12:34:52;25.40;89.10
11826;DHT22;5970;48.094;11.496;2022-10-15T12:37:19;24.80;90.90
11826;DHT22;5970;48.094;11.496;2022-10-15T12:39:53;24.60;91.30
11826;DHT22;5970;48.094;11.496;2022-10-15T12:42:21;24.40;93.70
11826;DHT22;5970;48.094;11.496;2022-10-15T12:44:49;23.60;93.80
11826;DHT22;5970;48.094;11.496;2022-10-15T12:49:44;23.20;88.60
11826;DHT22;5970;48.094;11.496;2022-10-15T12:54:45;23.40;90.30
11826;DHT22;5970;48.094;11.496;2022-10-15T13:02:49;23.20;90.70
11826;DHT22;5970;48.094;11.496;2022-10-15T13:05:31;23.00;91.10
11826;DHT22;5970;48.094;11.496;2022-10-15T13:07:59;23.00;92.90
11826;DHT22;5970;48.094;11.496;2022-10-15T13:10:34;22.90;90.80
11826;DHT22;5970;48.094;11.496;2022-10-15T13:13:03;22.70;91.00
11826;DHT22;5970;48.094;11.496;2022-10-15T13:15:30;22.60;91.90
11826;DHT22;5970;48.094;11.496;2022-10-15T13:17:58;22.40;91.30
11826;DHT22;5970;48.094;11.496;2022-10-15T13:20:30;22.00;91.30
11826;DHT22;5970;48.094;11.496;2022-10-15T13:23:08;21.90;93.30
11826;DHT22;5970;48.094;11.496;2022-10-15T13:26:11;21.70;94.30
11826;DHT22;5970;48.094;11.496;2022-10-15T13:28:39;22.00;96.00
11826;DHT22;5970;48.094;11.496;2022-10-15T13:33:38;22.50;91.40
11826;DHT22;5970;48.094;11.496;2022-10-15T13:36:06;22.30;91.50
11826;DHT22;5970;48.094;11.496;2022-10-15T13:38:34;22.40;91.00
11826;DHT22;5970;48.094;11.496;2022-10-15T13:41:02;22.20;91.50
11826;DHT22;5970;48.094;11.496;2022-10-15T13:43:29;22.10;91.00
11826;DHT22;5970;48.094;11.496;2022-10-15T13:45:56;22.30;91.40
11826;DHT22;5970;48.094;11.496;2022-10-15T13:48:24;21.10;90.90
11826;DHT22;5970;48.094;11.496;2022-10-15T13:50:52;22.10;91.70
11826;DHT22;5970;48.094;11.496;2022-10-15T13:55:50;22.20;91.80
11826;DHT22;5970;48.094;11.496;2022-10-15T13:58:39;22.20;91.10
11826;DHT22;5970;48.094;11.496;2022-10-15T14:03:53;21.80;91.50
11826;DHT22;5970;48.094;11.496;2022-10-15T14:06:23;21.40;90.80
11826;DHT22;5970;48.094;11.496;2022-10-15T14:08:51;21.50;92.00
11826;DHT22;5970;48.094;11.496;2022-10-15T14:11:18;21.10;91.60
11826;DHT22;5970;48.094;11.496;2022-10-15T14:16:17;20.90;91.90
11826;DHT22;5970;48.094;11.496;2022-10-15T14:18:56;21.00;92.00
11826;DHT22;5970;48.094;11.496;2022-10-15T14:21:24;20.80;91.60
11826;DHT22;5970;48.094;11.496;2022-10-15T14:24:02;20.80;92.20
11826;DHT22;5970;48.094;11.496;2022-10-15T14:26:29;20.80;92.40
11826;DHT22;5970;48.094;11.496;2022-10-15T14:28:56;20.60;92.80
11826;DHT22;5970;48.094;11.496;2022-10-15T14:31:27;20.50;92.70
11826;DHT22;5970;48.094;11.496;2022-10-15T14:33:55;20.40;92.60
11826;DHT22;5970;48.094;11.496;2022-10-15T14:38:48;20.40;92.70
11826;DHT22;5970;48.094;11.496;2022-10-15T14:41:20;20.40;92.70
11826;DHT22;5970;48.094;11.496;2022-10-15T14:43:58;20.90;93.10
11826;DHT22;5970;48.094;11.496;2022-10-15T14:46:24;20.60;93.10
11826;DHT22;5970;48.094;11.496;2022-10-15T14:48:52;20.70;92.80
11826;DHT22;5970;48.094;11.496;2022-10-15T14:51:22;20.80;93.00
11826;DHT22;5970;48.094;11.496;2022-10-15T14:53:50;20.70;92.70
11826;DHT22;5970;48.094;11.496;2022-10-15T14:56:18;20.60;92.90
11826;DHT22;5970;48.094;11.496;2022-10-15T14:58:46;20.50;93.10
11826;DHT22;5970;48.094;11.496;2022-10-15T15:01:18;20.60;93.50
11826;DHT22;5970;48.094;11.496;2022-10-15T15:03:46;20.70;93.30
11826;DHT22;5970;48.094;11.496;2022-10-15T15:06:13;20.60;92.90
11826;DHT22;5970;48.094;11.496;2022-10-15T15:08:40;20.50;93.20
11826;DHT22;5970;48.094;11.496;2022-10-15T15:11:09;20.50;93.30
11826;DHT22;5970;48.094;11.496;2022-10-15T15:13:37;20.30;93.40
11826;DHT22;5970;48.094;11.496;2022-10-15T15:16:04;20.20;93.70
11826;DHT22;5970;48.094;11.496;2022-10-15T15:18:31;20.10;93.80
11826;DHT22;5970;48.094;11.496;2022-10-15T15:21:02;19.90;95.40
11826;DHT22;5970;48.094;11.496;2022-10-15T15:23:30;19.90;95.70
11826;DHT22;5970;48.094;11.496;2022-10-15T15:25:57;19.70;95.10
11826;DHT22;5970;48.094;11.496;2022-10-15T15:28:25;19.60;95.10
11826;DHT22;5970;48.094;11.496;2022-10-15T15:30:59;19.50;95.10
11826;DHT22;5970;48.094;11.496;2022-10-15T15:33:26;19.60;95.70
11826;DHT22;5970;48.094;11.496;2022-10-15T15:38:30;19.60;95.60
11826;DHT22;5970;48.094;11.496;2022-10-15T15:41:10;19.70;95.80
11826;DHT22;5970;48.094;11.496;2022-10-15T15:43:37;19.60;95.70
11826;DHT22;5970;48.094;11.496;2022-10-15T15:46:04;20.00;96.00
11826;DHT22;5970;48.094;11.496;2022-10-15T15:48:31;19.50;95.90
11826;DHT22;5970;48.094;11.496;2022-10-15T15:51:02;19.40;96.10
11826;DHT22;5970;48.094;11.496;2022-10-15T15:53:29;19.40;96.30
11826;DHT22;5970;48.094;11.496;2022-10-15T15:55:55;19.30;96.50
11826;DHT22;5970;48.094;11.496;2022-10-15T15:58:22;19.10;96.70
11826;DHT22;5970;48.094;11.496;2022-10-15T16:00:49;19.20;97.40
11826;DHT22;5970;48.094;11.496;2022-10-15T16:03:16;19.10;97.80
11826;DHT22;5970;48.094;11.496;2022-10-15T16:05:42;19.00;98.40
11826;DHT22;5970;48.094;11.496;2022-10-15T16:08:09;18.90;97.70
11826;DHT22;5970;48.094;11.496;2022-10-15T16:10:36;18.80;97.70
11826;DHT22;5970;48.094;11.496;2022-10-15T16:13:03;18.70;97.90
11826;DHT22;5970;48.094;11.496;2022-10-15T16:15:30;18.70;97.80
11826;DHT22;5970;48.094;11.496;2022-10-15T16:17:56;18.70;98.60
11826;DHT22;5970;48.094;11.496;2022-10-15T16:20:23;18.60;98.90
11826;DHT22;5970;48.094;11.496;2022-10-15T16:22:50;18.40;98.40
11826;DHT22;5970;48.094;11.496;2022-10-15T16:25:17;18.50;99.10
11826;DHT22;5970;48.094;11.496;2022-10-15T16:27:44;18.50;99.10
11826;DHT22;5970;48.094;11.496;2022-10-15T16:30:14;18.50;99.10
11826;DHT22;5970;48.094;11.496;2022-10-15T16:32:40;18.40;99.90
11826;DHT22;5970;48.094;11.496;2022-10-15T16:35:07;18.20;99.90
11826;DHT22;5970;48.094;11.496;2022-10-15T16:37:34;18.20;99.90
11826;DHT22;5970;48.094;11.496;2022-10-15T16:40:00;18.50;99.90
11826;DHT22;5970;48.094;11.496;2022-10-15T16:42:27;18.00;99.90
11826;DHT22;5970;48.094;11.496;2022-10-15T16:44:54;18.00;99.90
11826;DHT22;5970;48.094;11.496;2022-10-15T16:47:20;17.90;99.90
11826;DHT22;5970;48.094;11.496;2022-10-15T16:49:47;17.70;99.90
11826;DHT22;5970;48.094;11.496;2022-10-15T16:52:14;17.50;99.90
11826;DHT22;5970;48.094;11.496;2022-10-15T16:54:41;17.60;99.90
11826;DHT22;5970;48.094;11.496;2022-10-15T16:57:08;17.40;99.90
11826;DHT22;5970;48.094;11.496;2022-10-15T16:59:34;17.20;99.90
11826;DHT22;5970;48.094;11.496;2022-10-15T17:02:01;17.10;99.90
11826;DHT22;5970;48.094;11.496;2022-10-15T17:04:28;17.00;99.90
11826;DHT22;5970;48.094;11.496;2022-10-15T17:06:54;17.00;99.90
11826;DHT22;5970;48.094;11.496;2022-10-15T17:09:21;17.00;99.90
11826;DHT22;5970;48.094;11.496;2022-10-15T17:11:49;16.90;99.90
11826;DHT22;5970;48.094;11.496;2022-10-15T17:14:16;16.90;99.90
11826;DHT22;5970;48.094;11.496;2022-10-15T17:16:44;16.90;99.90
11826;DHT22;5970;48.094;11.496;2022-10-15T17:19:11;16.90;99.90
11826;DHT22;5970;48.094;11.496;2022-10-15T17:21:39;17.50;99.90
11826;DHT22;5970;48.094;11.496;2022-10-15T17:24:10;16.90;99.90
11826;DHT22;5970;48.094;11.496;2022-10-15T17:26:37;16.90;99.90
11826;DHT22;5970;48.094;11.496;2022-10-15T17:29:10;17.50;99.90
11826;DHT22;5970;48.094;11.496;2022-10-15T17:31:37;16.90;99.90
11826;DHT22;5970;48.094;11.496;2022-10-15T17:34:04;16.90;99.90
11826;DHT22;5970;48.094;11.496;2022-10-15T17:36:34;16.90;99.90
11826;DHT22;5970;48.094;11.496;2022-10-15T17:39:02;16.90;99.90
11826;DHT22;5970;48.094;11.496;2022-10-15T17:41:29;16.90;99.90
11826;DHT22;5970;48.094;11.496;2022-10-15T17:43:56;17.00;99.90
11826;DHT22;5970;48.094;11.496;2022-10-15T17:46:24;16.80;99.90
11826;DHT22;5970;48.094;11.496;2022-10-15T17:48:51;17.00;99.90